sensor_id;sensor_type;location;lat;lon;timestamp;pressure;altitude;pressure_sealevel;temperature;humidity
6198;BME280;3132;42.622;23.328;2023-02-17T00:01:41;93654.63;;;0.96;77.00
6198;BME280;3132;42.622;23.328;2023-02-17T00:04:07;93634.97;;;0.69;77.50
6198;BME280;3132;42.622;23.328;2023-02-17T00:06:32;93677.38;;;0.99;76.51
6198;BME280;3132;42.622;23.328;2023-02-17T00:08:57;93651.41;;;0.81;76.09
6198;BME280;3132;42.622;23.328;2023-02-17T00:11:24;93679.13;;;0.92;76.74
6198;BME280;3132;42.622;23.328;2023-02-17T00:13:50;93646.28;;;0.81;76.71
6198;BME280;3132;42.622;23.328;2023-02-17T00:16:18;93674.38;;;0.89;77.09
6198;BME280;3132;42.622;23.328;2023-02-17T00:18:45;93675.94;;;0.84;78.18
6198;BME280;3132;42.622;23.328;2023-02-17T00:21:16;93681.09;;;0.84;78.43
6198;BME280;3132;42.622;23.328;2023-02-17T00:23:42;93649.59;;;0.62;78.72
6198;BME280;3132;42.622;23.328;2023-02-17T00:26:07;93676.13;;;0.76;78.91
6198;BME280;3132;42.622;23.328;2023-02-17T00:28:33;93621.34;;;0.62;78.95
6198;BME280;3132;42.622;23.328;2023-02-17T00:30:59;93636.16;;;0.73;78.22
6198;BME280;3132;42.622;23.328;2023-02-17T00:33:29;93650.63;;;0.81;78.30
6198;BME280;3132;42.622;23.328;2023-02-17T00:35:54;93650.59;;;0.68;78.37
6198;BME280;3132;42.622;23.328;2023-02-17T00:38:19;93653.34;;;0.66;78.43
6198;BME280;3132;42.622;23.328;2023-02-17T00:40:45;93646.06;;;0.70;78.43
6198;BME280;3132;42.622;23.328;2023-02-17T00:43:10;93613.81;;;0.54;78.43
6198;BME280;3132;42.622;23.328;2023-02-17T00:45:36;93614.56;;;0.55;79.01
6198;BME280;3132;42.622;23.328;2023-02-17T00:48:01;93636.16;;;0.73;79.37
6198;BME280;3132;42.622;23.328;2023-02-17T00:50:26;93620.16;;;0.71;78.71
6198;BME280;3132;42.622;23.328;2023-02-17T00:52:52;93597.63;;;0.60;79.76
6198;BME280;3132;42.622;23.328;2023-02-17T00:55:17;93621.97;;;0.77;79.29
6198;BME280;3132;42.622;23.328;2023-02-17T00:57:42;93636.22;;;0.86;79.21
6198;BME280;3132;42.622;23.328;2023-02-17T01:00:08;93627.72;;;0.92;78.81
6198;BME280;3132;42.622;23.328;2023-02-17T01:02:34;93637.41;;;0.97;78.58
6198;BME280;3132;42.622;23.328;2023-02-17T01:04:59;93637.78;;;0.87;79.30
6198;BME280;3132;42.622;23.328;2023-02-17T01:07:24;93608.09;;;0.72;79.03
6198;BME280;3132;42.622;23.328;2023-02-17T01:09:50;93639.97;;;0.90;78.53
6198;BME280;3132;42.622;23.328;2023-02-17T01:12:17;93635.59;;;0.78;79.04
6198;BME280;3132;42.622;23.328;2023-02-17T01:14:42;93626.31;;;0.77;79.13
6198;BME280;3132;42.622;23.328;2023-02-17T01:17:07;93585.94;;;0.51;79.10
6198;BME280;3132;42.622;23.328;2023-02-17T01:19:33;93609.13;;;0.84;78.42
6198;BME280;3132;42.622;23.328;2023-02-17T01:21:58;93639.59;;;1.06;78.71
6198;BME280;3132;42.622;23.328;2023-02-17T01:24:24;93621.59;;;1.06;78.61
6198;BME280;3132;42.622;23.328;2023-02-17T01:26:49;93627.13;;;1.03;78.76
6198;BME280;3132;42.622;23.328;2023-02-17T01:29:14;93624.56;;;1.03;78.77
6198;BME280;3132;42.622;23.328;2023-02-17T01:31:40;93608.53;;;1.01;79.33
6198;BME280;3132;42.622;23.328;2023-02-17T01:34:05;93629.13;;;1.14;78.96
6198;BME280;3132;42.622;23.328;2023-02-17T01:36:31;93617.25;;;1.07;79.00
6198;BME280;3132;42.622;23.328;2023-02-17T01:38:57;93620.78;;;0.86;80.25
6198;BME280;3132;42.622;23.328;2023-02-17T01:41:24;93587.72;;;0.70;79.80
6198;BME280;3132;42.622;23.328;2023-02-17T01:44:22;93598.44;;;0.80;80.00
6198;BME280;3132;42.622;23.328;2023-02-17T01:46:50;93587.78;;;0.83;79.92
6198;BME280;3132;42.622;23.328;2023-02-17T01:54:34;93582.22;;;0.80;80.63
6198;BME280;3132;42.622;23.328;2023-02-17T01:57:00;93615.44;;;0.81;81.55
6198;BME280;3132;42.622;23.328;2023-02-17T01:59:27;93556.84;;;0.38;81.89
6198;BME280;3132;42.622;23.328;2023-02-17T02:01:57;93592.88;;;0.70;81.41
6198;BME280;3132;42.622;23.328;2023-02-17T02:04:25;93609.13;;;0.77;81.49
6198;BME280;3132;42.622;23.328;2023-02-17T02:06:52;93616.44;;;1.00;81.23
6198;BME280;3132;42.622;23.328;2023-02-17T02:09:21;93619.84;;;1.07;81.09
6198;BME280;3132;42.622;23.328;2023-02-17T02:11:51;93604.38;;;0.87;80.88
6198;BME280;3132;42.622;23.328;2023-02-17T02:14:18;93580.84;;;0.77;81.20
6198;BME280;3132;42.622;23.328;2023-02-17T02:33:43;93624.53;;;0.90;82.01
6198;BME280;3132;42.622;23.328;2023-02-17T02:42:01;93603.97;;;0.77;82.64
6198;BME280;3132;42.622;23.328;2023-02-17T02:44:28;93569.56;;;0.59;82.71
6198;BME280;3132;42.622;23.328;2023-02-17T02:46:58;93604.53;;;0.66;82.67
6198;BME280;3132;42.622;23.328;2023-02-17T02:49:24;93605.53;;;0.65;82.96
6198;BME280;3132;42.622;23.328;2023-02-17T02:51:54;93604.31;;;0.55;83.83
6198;BME280;3132;42.622;23.328;2023-02-17T03:00:13;93603.53;;;0.67;83.06
6198;BME280;3132;42.622;23.328;2023-02-17T03:05:36;93605.13;;;0.62;83.11
6198;BME280;3132;42.622;23.328;2023-02-17T03:08:42;93609.06;;;0.58;82.92
6198;BME280;3132;42.622;23.328;2023-02-17T03:11:11;93565.13;;;0.33;82.80
6198;BME280;3132;42.622;23.328;2023-02-17T03:13:37;93610.25;;;0.55;82.81
6198;BME280;3132;42.622;23.328;2023-02-17T03:16:06;93591.25;;;0.43;83.33
6198;BME280;3132;42.622;23.328;2023-02-17T03:18:33;93597.94;;;0.38;83.88
6198;BME280;3132;42.622;23.328;2023-02-17T03:21:06;93604.28;;;0.42;83.95
6198;BME280;3132;42.622;23.328;2023-02-17T03:23:35;93615.94;;;0.44;83.79
6198;BME280;3132;42.622;23.328;2023-02-17T03:26:00;93603.34;;;0.56;82.43
6198;BME280;3132;42.622;23.328;2023-02-17T03:28:25;93607.06;;;0.53;82.56
6198;BME280;3132;42.622;23.328;2023-02-17T03:30:51;93591.59;;;0.34;83.36
6198;BME280;3132;42.622;23.328;2023-02-17T03:33:16;93595.38;;;0.44;83.32
6198;BME280;3132;42.622;23.328;2023-02-17T03:35:41;93599.13;;;0.35;83.41
6198;BME280;3132;42.622;23.328;2023-02-17T03:38:07;93594.44;;;0.58;82.49
6198;BME280;3132;42.622;23.328;2023-02-17T03:40:32;93597.19;;;0.50;83.35
6198;BME280;3132;42.622;23.328;2023-02-17T03:42:58;93603.13;;;0.51;83.23
6198;BME280;3132;42.622;23.328;2023-02-17T03:45:23;93576.50;;;0.71;80.79
6198;BME280;3132;42.622;23.328;2023-02-17T03:47:49;93590.91;;;0.72;81.64
6198;BME280;3132;42.622;23.328;2023-02-17T03:50:14;93594.47;;;0.71;82.21
6198;BME280;3132;42.622;23.328;2023-02-17T03:52:39;93555.94;;;0.71;81.42
6198;BME280;3132;42.622;23.328;2023-02-17T03:55:05;93597.88;;;0.91;81.62
6198;BME280;3132;42.622;23.328;2023-02-17T03:57:30;93603.63;;;1.39;79.19
6198;BME280;3132;42.622;23.328;2023-02-17T03:59:56;93586.22;;;1.08;80.91
6198;BME280;3132;42.622;23.328;2023-02-17T04:02:22;93586.19;;;0.89;81.95
6198;BME280;3132;42.622;23.328;2023-02-17T04:04:47;93586.59;;;0.79;81.91
6198;BME280;3132;42.622;23.328;2023-02-17T04:07:13;93611.53;;;1.11;80.97
6198;BME280;3132;42.622;23.328;2023-02-17T04:09:38;93579.88;;;0.85;80.79
6198;BME280;3132;42.622;23.328;2023-02-17T04:12:04;93595.28;;;1.04;80.91
6198;BME280;3132;42.622;23.328;2023-02-17T04:14:29;93601.03;;;0.93;80.91
6198;BME280;3132;42.622;23.328;2023-02-17T04:16:55;93599.88;;;1.02;81.07
6198;BME280;3132;42.622;23.328;2023-02-17T04:19:20;93579.84;;;0.78;81.72
6198;BME280;3132;42.622;23.328;2023-02-17T04:21:45;93598.06;;;0.90;81.76
6198;BME280;3132;42.622;23.328;2023-02-17T04:24:11;93590.91;;;0.72;82.54
6198;BME280;3132;42.622;23.328;2023-02-17T04:26:36;93571.94;;;0.67;82.48
6198;BME280;3132;42.622;23.328;2023-02-17T04:29:03;93586.19;;;0.82;81.97
6198;BME280;3132;42.622;23.328;2023-02-17T04:31:29;93587.34;;;0.80;82.36
6198;BME280;3132;42.622;23.328;2023-02-17T04:33:54;93601.41;;;0.77;82.66
6198;BME280;3132;42.622;23.328;2023-02-17T04:36:20;93604.38;;;0.81;83.20
6198;BME280;3132;42.622;23.328;2023-02-17T04:38:45;93587.72;;;0.70;82.76
6198;BME280;3132;42.622;23.328;2023-02-17T04:41:11;93584.97;;;0.65;82.18
6198;BME280;3132;42.622;23.328;2023-02-17T04:43:36;93596.41;;;0.56;83.77
6198;BME280;3132;42.622;23.328;2023-02-17T04:46:01;93594.69;;;0.83;83.12
6198;BME280;3132;42.622;23.328;2023-02-17T04:48:27;93600.63;;;0.83;82.65
6198;BME280;3132;42.622;23.328;2023-02-17T04:50:52;93585.75;;;0.66;83.39
6198;BME280;3132;42.622;23.328;2023-02-17T04:53:18;93605.34;;;0.80;83.55
6198;BME280;3132;42.622;23.328;2023-02-17T04:55:47;93598.41;;;0.61;83.18
6198;BME280;3132;42.622;23.328;2023-02-17T04:58:13;93617.63;;;0.78;83.03
6198;BME280;3132;42.622;23.328;2023-02-17T05:00:38;93621.56;;;0.80;82.78
6198;BME280;3132;42.622;23.328;2023-02-17T05:03:04;93618.41;;;0.78;82.51
6198;BME280;3132;42.622;23.328;2023-02-17T05:05:29;93613.47;;;0.83;82.48
6198;BME280;3132;42.622;23.328;2023-02-17T05:07:55;93600.38;;;0.72;82.76
6198;BME280;3132;42.622;23.328;2023-02-17T05:10:20;93611.06;;;0.62;83.73
6198;BME280;3132;42.622;23.328;2023-02-17T05:12:46;93593.84;;;0.63;84.15
6198;BME280;3132;42.622;23.328;2023-02-17T05:15:11;93610.06;;;0.63;83.90
6198;BME280;3132;42.622;23.328;2023-02-17T05:17:37;93622.88;;;0.57;83.94
6198;BME280;3132;42.622;23.328;2023-02-17T05:20:04;93626.09;;;0.65;84.66
6198;BME280;3132;42.622;23.328;2023-02-17T05:22:30;93628.84;;;0.70;84.04
6198;BME280;3132;42.622;23.328;2023-02-17T05:24:55;93612.25;;;0.66;83.68
6198;BME280;3132;42.622;23.328;2023-02-17T05:27:21;93627.69;;;0.73;83.88
6198;BME280;3132;42.622;23.328;2023-02-17T05:29:46;93643.13;;;0.86;83.32
6198;BME280;3132;42.622;23.328;2023-02-17T05:32:12;93640.75;;;0.84;83.42
6198;BME280;3132;42.622;23.328;2023-02-17T05:34:38;93654.22;;;0.93;83.05
6198;BME280;3132;42.622;23.328;2023-02-17T05:37:03;93655.00;;;0.87;82.48
6198;BME280;3132;42.622;23.328;2023-02-17T05:39:29;93636.25;;;0.99;82.56
6198;BME280;3132;42.622;23.328;2023-02-17T05:41:54;93634.47;;;1.06;81.25
6198;BME280;3132;42.622;23.328;2023-02-17T05:44:19;93650.13;;;1.24;81.47
6198;BME280;3132;42.622;23.328;2023-02-17T05:46:46;93657.44;;;1.27;81.61
6198;BME280;3132;42.622;23.328;2023-02-17T05:49:11;93665.34;;;1.32;81.35
6198;BME280;3132;42.622;23.328;2023-02-17T05:51:37;93658.03;;;1.42;81.18
6198;BME280;3132;42.622;23.328;2023-02-17T05:54:02;93663.78;;;1.44;81.17
6198;BME280;3132;42.622;23.328;2023-02-17T05:56:28;93643.19;;;1.25;81.17
6198;BME280;3132;42.622;23.328;2023-02-17T05:58:53;93658.66;;;1.44;81.34
6198;BME280;3132;42.622;23.328;2023-02-17T06:01:18;93673.06;;;1.65;80.71
6198;BME280;3132;42.622;23.328;2023-02-17T06:03:44;93675.06;;;1.56;80.90
6198;BME280;3132;42.622;23.328;2023-02-17T06:06:09;93671.50;;;1.71;79.87
6198;BME280;3132;42.622;23.328;2023-02-17T06:08:35;93676.44;;;1.79;79.66
6198;BME280;3132;42.622;23.328;2023-02-17T06:11:01;93665.34;;;1.78;79.69
6198;BME280;3132;42.622;23.328;2023-02-17T06:13:26;93681.56;;;1.92;79.09
6198;BME280;3132;42.622;23.328;2023-02-17T06:15:52;93662.16;;;1.96;79.39
6198;BME280;3132;42.622;23.328;2023-02-17T06:18:17;93658.22;;;1.80;79.38
6198;BME280;3132;42.622;23.328;2023-02-17T06:20:42;93686.09;;;2.09;78.90
6198;BME280;3132;42.622;23.328;2023-02-17T06:23:08;93650.09;;;1.90;79.21
6198;BME280;3132;42.622;23.328;2023-02-17T06:25:33;93661.34;;;2.15;78.54
6198;BME280;3132;42.622;23.328;2023-02-17T06:27:59;93664.50;;;2.17;78.56
6198;BME280;3132;42.622;23.328;2023-02-17T06:30:24;93668.22;;;2.34;78.19
6198;BME280;3132;42.622;23.328;2023-02-17T06:32:50;93679.81;;;2.69;76.03
6198;BME280;3132;42.622;23.328;2023-02-17T06:35:15;93673.81;;;2.81;75.11
6198;BME280;3132;42.622;23.328;2023-02-17T06:37:41;93658.38;;;2.75;74.97
6198;BME280;3132;42.622;23.328;2023-02-17T06:40:06;93695.09;;;3.08;74.45
6198;BME280;3132;42.622;23.328;2023-02-17T06:42:32;93692.66;;;3.19;73.30
6198;BME280;3132;42.622;23.328;2023-02-17T06:44:57;93656.88;;;2.92;74.97
6198;BME280;3132;42.622;23.328;2023-02-17T06:47:25;93683.88;;;3.27;73.44
6198;BME280;3132;42.622;23.328;2023-02-17T06:49:50;93690.53;;;3.41;73.09
6198;BME280;3132;42.622;23.328;2023-02-17T06:52:15;93688.91;;;3.47;71.81
6198;BME280;3132;42.622;23.328;2023-02-17T06:54:41;93682.94;;;3.46;71.85
6198;BME280;3132;42.622;23.328;2023-02-17T06:57:06;93703.56;;;3.53;72.17
6198;BME280;3132;42.622;23.328;2023-02-17T06:59:32;93701.31;;;3.63;72.81
6198;BME280;3132;42.622;23.328;2023-02-17T07:01:57;93673.84;;;3.44;72.17
6198;BME280;3132;42.622;23.328;2023-02-17T07:04:23;93676.06;;;3.65;71.64
6198;BME280;3132;42.622;23.328;2023-02-17T07:06:48;93712.09;;;3.84;71.58
6198;BME280;3132;42.622;23.328;2023-02-17T07:09:13;93665.47;;;3.48;72.34
6198;BME280;3132;42.622;23.328;2023-02-17T07:11:39;93705.91;;;3.85;72.28
6198;BME280;3132;42.622;23.328;2023-02-17T07:14:06;93701.53;;;4.10;71.67
6198;BME280;3132;42.622;23.328;2023-02-17T07:16:31;93696.03;;;4.00;71.84
6198;BME280;3132;42.622;23.328;2023-02-17T07:18:57;93689.03;;;3.58;74.05
6198;BME280;3132;42.622;23.328;2023-02-17T07:21:23;93696.19;;;4.05;71.79
6198;BME280;3132;42.622;23.328;2023-02-17T07:23:48;93709.00;;;4.18;71.07
6198;BME280;3132;42.622;23.328;2023-02-17T07:26:14;93719.59;;;4.35;67.71
6198;BME280;3132;42.622;23.328;2023-02-17T07:28:39;93699.81;;;4.22;68.69
6198;BME280;3132;42.622;23.328;2023-02-17T07:31:06;93724.19;;;4.08;70.03
6198;BME280;3132;42.622;23.328;2023-02-17T07:33:33;93710.19;;;3.98;69.34
6198;BME280;3132;42.622;23.328;2023-02-17T07:35:58;93731.22;;;4.26;69.45
6198;BME280;3132;42.622;23.328;2023-02-17T07:38:24;93695.81;;;4.26;67.77
6198;BME280;3132;42.622;23.328;2023-02-17T07:40:49;93724.38;;;4.31;68.81
6198;BME280;3132;42.622;23.328;2023-02-17T07:43:15;93708.63;;;4.57;66.08
6198;BME280;3132;42.622;23.328;2023-02-17T07:45:40;93722.56;;;4.92;63.62
6198;BME280;3132;42.622;23.328;2023-02-17T07:48:05;93712.22;;;4.92;63.30
6198;BME280;3132;42.622;23.328;2023-02-17T07:50:31;93734.78;;;5.04;63.96
6198;BME280;3132;42.622;23.328;2023-02-17T07:52:56;93719.59;;;5.07;64.88
6198;BME280;3132;42.622;23.328;2023-02-17T07:55:22;93721.47;;;5.18;65.98
6198;BME280;3132;42.622;23.328;2023-02-17T07:57:48;93721.09;;;5.15;66.23
6198;BME280;3132;42.622;23.328;2023-02-17T08:00:14;93726.81;;;5.35;65.38
6198;BME280;3132;42.622;23.328;2023-02-17T08:02:40;93697.59;;;5.46;62.86
6198;BME280;3132;42.622;23.328;2023-02-17T08:05:05;93727.84;;;5.34;64.08
6198;BME280;3132;42.622;23.328;2023-02-17T08:07:31;93731.84;;;5.59;63.46
6198;BME280;3132;42.622;23.328;2023-02-17T08:09:57;93728.19;;;5.78;61.79
6198;BME280;3132;42.622;23.328;2023-02-17T08:12:41;93714.75;;;5.70;62.29
6198;BME280;3132;42.622;23.328;2023-02-17T08:15:25;93723.34;;;6.11;59.43
6198;BME280;3132;42.622;23.328;2023-02-17T08:17:51;93718.44;;;5.92;59.97
6198;BME280;3132;42.622;23.328;2023-02-17T08:20:17;93734.25;;;6.13;60.85
6198;BME280;3132;42.622;23.328;2023-02-17T08:22:43;93744.00;;;6.41;60.76
6198;BME280;3132;42.622;23.328;2023-02-17T08:25:08;93741.59;;;6.05;62.76
6198;BME280;3132;42.622;23.328;2023-02-17T08:27:34;93744.00;;;6.41;61.02
6198;BME280;3132;42.622;23.328;2023-02-17T08:29:59;93742.41;;;6.40;60.52
6198;BME280;3132;42.622;23.328;2023-02-17T08:32:25;93739.59;;;6.30;61.51
6198;BME280;3132;42.622;23.328;2023-02-17T08:34:54;93747.81;;;6.50;60.44
6198;BME280;3132;42.622;23.328;2023-02-17T08:37:19;93749.84;;;6.71;59.84
6198;BME280;3132;42.622;23.328;2023-02-17T08:39:45;93739.91;;;6.68;59.60
6198;BME280;3132;42.622;23.328;2023-02-17T08:42:10;93732.59;;;6.65;59.80
6198;BME280;3132;42.622;23.328;2023-02-17T08:44:36;93738.53;;;6.89;59.76
6198;BME280;3132;42.622;23.328;2023-02-17T08:47:03;93747.09;;;7.12;58.56
6198;BME280;3132;42.622;23.328;2023-02-17T08:49:29;93730.75;;;6.89;59.34
6198;BME280;3132;42.622;23.328;2023-02-17T08:51:57;93743.81;;;7.05;59.40
6198;BME280;3132;42.622;23.328;2023-02-17T08:54:22;93746.16;;;7.30;58.82
6198;BME280;3132;42.622;23.328;2023-02-17T08:56:48;93735.78;;;7.18;59.30
6198;BME280;3132;42.622;23.328;2023-02-17T08:59:14;93751.69;;;7.22;58.85
6198;BME280;3132;42.622;23.328;2023-02-17T09:01:41;93748.41;;;7.26;58.52
6198;BME280;3132;42.622;23.328;2023-02-17T09:04:08;93749.72;;;7.40;58.62
6198;BME280;3132;42.622;23.328;2023-02-17T09:06:40;93756.56;;;7.58;58.29
6198;BME280;3132;42.622;23.328;2023-02-17T09:09:08;93759.09;;;7.69;57.62
6198;BME280;3132;42.622;23.328;2023-02-17T09:11:34;93725.75;;;7.94;57.56
6198;BME280;3132;42.622;23.328;2023-02-17T09:14:00;93755.25;;;8.16;57.31
6198;BME280;3132;42.622;23.328;2023-02-17T09:16:25;93751.59;;;8.17;56.64
6198;BME280;3132;42.622;23.328;2023-02-17T09:18:51;93745.50;;;8.24;56.52
6198;BME280;3132;42.622;23.328;2023-02-17T09:21:18;93740.38;;;8.29;56.87
6198;BME280;3132;42.622;23.328;2023-02-17T09:23:44;93738.94;;;8.21;56.94
6198;BME280;3132;42.622;23.328;2023-02-17T09:26:11;93733.22;;;8.36;56.40
6198;BME280;3132;42.622;23.328;2023-02-17T09:28:38;93738.56;;;8.46;53.62
6198;BME280;3132;42.622;23.328;2023-02-17T09:31:17;93734.41;;;8.83;52.62
6198;BME280;3132;42.622;23.328;2023-02-17T09:33:44;93740.81;;;8.92;52.06
6198;BME280;3132;42.622;23.328;2023-02-17T09:36:14;93740.25;;;8.73;53.35
6198;BME280;3132;42.622;23.328;2023-02-17T09:38:40;93744.91;;;9.09;53.14
6198;BME280;3132;42.622;23.328;2023-02-17T09:41:26;93739.69;;;9.26;51.44
6198;BME280;3132;42.622;23.328;2023-02-17T09:43:53;93744.16;;;9.52;46.62
6198;BME280;3132;42.622;23.328;2023-02-17T09:46:29;93732.66;;;10.01;39.63
6198;BME280;3132;42.622;23.328;2023-02-17T09:49:05;93722.91;;;10.18;38.01
6198;BME280;3132;42.622;23.328;2023-02-17T09:54:33;93732.38;;;10.61;36.21
6198;BME280;3132;42.622;23.328;2023-02-17T09:57:02;93729.81;;;10.71;35.32
6198;BME280;3132;42.622;23.328;2023-02-17T09:59:36;93712.22;;;10.51;34.51
6198;BME280;3132;42.622;23.328;2023-02-17T10:02:11;93698.63;;;10.49;34.76
6198;BME280;3132;42.622;23.328;2023-02-17T10:04:41;93723.13;;;10.85;34.77
6198;BME280;3132;42.622;23.328;2023-02-17T10:09:49;93716.84;;;10.81;34.74
6198;BME280;3132;42.622;23.328;2023-02-17T10:12:29;93696.50;;;10.83;34.69
6198;BME280;3132;42.622;23.328;2023-02-17T10:15:13;93713.88;;;11.09;32.76
6198;BME280;3132;42.622;23.328;2023-02-17T10:17:50;93716.16;;;11.00;33.38
6198;BME280;3132;42.622;23.328;2023-02-17T10:20:22;93709.81;;;10.86;34.70
6198;BME280;3132;42.622;23.328;2023-02-17T10:22:58;93697.84;;;10.90;33.49
6198;BME280;3132;42.622;23.328;2023-02-17T10:25:49;93706.81;;;11.09;34.97
6198;BME280;3132;42.622;23.328;2023-02-17T10:28:21;93687.66;;;10.99;33.94
6198;BME280;3132;42.622;23.328;2023-02-17T10:33:34;93683.03;;;11.16;34.13
6198;BME280;3132;42.622;23.328;2023-02-17T10:38:49;93634.38;;;10.95;34.77
6198;BME280;3132;42.622;23.328;2023-02-17T10:41:20;93669.19;;;11.10;34.30
6198;BME280;3132;42.622;23.328;2023-02-17T10:43:47;93665.56;;;11.21;33.74
6198;BME280;3132;42.622;23.328;2023-02-17T10:46:16;93685.22;;;11.34;35.61
6198;BME280;3132;42.622;23.328;2023-02-17T10:48:46;93681.28;;;11.31;35.37
6198;BME280;3132;42.622;23.328;2023-02-17T10:51:15;93680.25;;;11.32;35.22
6198;BME280;3132;42.622;23.328;2023-02-17T10:53:44;93667.19;;;11.32;35.90
6198;BME280;3132;42.622;23.328;2023-02-17T10:56:20;93655.13;;;11.21;35.43
6198;BME280;3132;42.622;23.328;2023-02-17T10:59:48;93665.34;;;11.38;34.83
6198;BME280;3132;42.622;23.328;2023-02-17T11:04:41;93665.09;;;11.34;35.00
6198;BME280;3132;42.622;23.328;2023-02-17T11:07:11;93665.91;;;11.45;33.70
6198;BME280;3132;42.622;23.328;2023-02-17T11:09:39;93668.78;;;11.44;33.78
6198;BME280;3132;42.622;23.328;2023-02-17T11:12:20;93642.56;;;11.18;34.59
6198;BME280;3132;42.622;23.328;2023-02-17T11:14:52;93624.75;;;11.10;34.17
6198;BME280;3132;42.622;23.328;2023-02-17T11:17:34;93662.75;;;11.43;34.15
6198;BME280;3132;42.622;23.328;2023-02-17T11:22:58;93643.66;;;11.43;34.44
6198;BME280;3132;42.622;23.328;2023-02-17T11:25:28;93663.59;;;11.59;34.78
6198;BME280;3132;42.622;23.328;2023-02-17T11:27:59;93661.47;;;11.56;35.11
6198;BME280;3132;42.622;23.328;2023-02-17T11:30:26;93657.00;;;11.46;34.12
6198;BME280;3132;42.622;23.328;2023-02-17T11:32:52;93645.22;;;11.38;34.52
6198;BME280;3132;42.622;23.328;2023-02-17T11:38:15;93660.22;;;11.68;35.29
6198;BME280;3132;42.622;23.328;2023-02-17T11:43:19;93640.63;;;11.66;34.00
6198;BME280;3132;42.622;23.328;2023-02-17T11:46:13;93643.75;;;11.73;35.51
6198;BME280;3132;42.622;23.328;2023-02-17T11:51:58;93639.56;;;11.77;35.88
6198;BME280;3132;42.622;23.328;2023-02-17T11:57:16;93639.06;;;11.85;34.96
6198;BME280;3132;42.622;23.328;2023-02-17T12:02:37;93621.25;;;11.82;35.37
6198;BME280;3132;42.622;23.328;2023-02-17T12:07:38;93625.47;;;11.98;34.83
6198;BME280;3132;42.622;23.328;2023-02-17T12:10:18;93616.03;;;11.87;35.54
6198;BME280;3132;42.622;23.328;2023-02-17T12:13:12;93621.78;;;12.04;35.87
6198;BME280;3132;42.622;23.328;2023-02-17T12:24:20;93610.28;;;12.00;37.06
6198;BME280;3132;42.622;23.328;2023-02-17T12:26:49;93581.22;;;11.86;37.33
6198;BME280;3132;42.622;23.328;2023-02-17T12:32:22;93583.59;;;11.88;36.53
6198;BME280;3132;42.622;23.328;2023-02-17T12:34:57;93591.72;;;11.96;36.68
6198;BME280;3132;42.622;23.328;2023-02-17T12:37:35;93584.63;;;12.07;37.95
6198;BME280;3132;42.622;23.328;2023-02-17T12:40:15;93584.88;;;12.00;36.96
6198;BME280;3132;42.622;23.328;2023-02-17T12:42:53;93573.66;;;12.00;37.95
6198;BME280;3132;42.622;23.328;2023-02-17T12:45:23;93565.53;;;11.96;37.52
6198;BME280;3132;42.622;23.328;2023-02-17T12:52:52;93565.78;;;12.15;37.69
6198;BME280;3132;42.622;23.328;2023-02-17T12:55:35;93571.28;;;12.08;37.74
6198;BME280;3132;42.622;23.328;2023-02-17T12:58:11;93543.81;;;12.06;38.10
6198;BME280;3132;42.622;23.328;2023-02-17T13:00:42;93570.72;;;12.31;37.98
6198;BME280;3132;42.622;23.328;2023-02-17T13:03:08;93567.81;;;12.38;36.93
6198;BME280;3132;42.622;23.328;2023-02-17T13:10:43;93563.88;;;12.50;36.81
6198;BME280;3132;42.622;23.328;2023-02-17T13:13:11;93549.00;;;12.31;37.07
6198;BME280;3132;42.622;23.328;2023-02-17T13:15:42;93570.16;;;12.49;36.91
6198;BME280;3132;42.622;23.328;2023-02-17T13:18:30;93568.88;;;12.42;37.01
6198;BME280;3132;42.622;23.328;2023-02-17T13:23:40;93541.09;;;12.41;37.62
6198;BME280;3132;42.622;23.328;2023-02-17T13:26:23;93565.16;;;12.53;36.95
6198;BME280;3132;42.622;23.328;2023-02-17T13:28:50;93539.00;;;12.38;36.53
6198;BME280;3132;42.622;23.328;2023-02-17T13:31:25;93547.88;;;12.52;35.80
6198;BME280;3132;42.622;23.328;2023-02-17T13:33:53;93551.56;;;12.46;36.03
6198;BME280;3132;42.622;23.328;2023-02-17T13:36:34;93562.53;;;12.53;36.43
6198;BME280;3132;42.622;23.328;2023-02-17T13:39:03;93559.16;;;12.52;36.40
6198;BME280;3132;42.622;23.328;2023-02-17T13:41:46;93562.00;;;12.61;36.84
6198;BME280;3132;42.622;23.328;2023-02-17T13:44:33;93561.50;;;12.54;36.47
6198;BME280;3132;42.622;23.328;2023-02-17T13:47:11;93559.69;;;12.54;36.12
6198;BME280;3132;42.622;23.328;2023-02-17T13:49:37;93564.38;;;12.52;35.57
6198;BME280;3132;42.622;23.328;2023-02-17T13:52:15;93569.34;;;12.54;35.35
6198;BME280;3132;42.622;23.328;2023-02-17T13:55:00;93548.47;;;12.34;34.81
6198;BME280;3132;42.622;23.328;2023-02-17T13:57:34;93550.03;;;12.35;35.12
6198;BME280;3132;42.622;23.328;2023-02-17T14:00:18;93559.44;;;12.41;34.46
6198;BME280;3132;42.622;23.328;2023-02-17T14:02:46;93554.19;;;12.41;35.04
6198;BME280;3132;42.622;23.328;2023-02-17T14:07:48;93553.72;;;12.24;35.06
6198;BME280;3132;42.622;23.328;2023-02-17T14:10:25;93543.81;;;12.11;34.33
6198;BME280;3132;42.622;23.328;2023-02-17T14:12:51;93557.13;;;12.19;34.61
6198;BME280;3132;42.622;23.328;2023-02-17T14:15:22;93557.44;;;12.03;35.93
6198;BME280;3132;42.622;23.328;2023-02-17T14:17:48;93550.38;;;11.93;36.32
6198;BME280;3132;42.622;23.328;2023-02-17T14:23:01;93556.91;;;11.86;36.18
6198;BME280;3132;42.622;23.328;2023-02-17T14:25:30;93558.22;;;11.73;36.53
6198;BME280;3132;42.622;23.328;2023-02-17T14:27:55;93554.03;;;11.72;36.35
6198;BME280;3132;42.622;23.328;2023-02-17T14:35:59;93571.44;;;11.06;37.69
6198;BME280;3132;42.622;23.328;2023-02-17T14:41:05;93577.09;;;10.78;37.78
6198;BME280;3132;42.622;23.328;2023-02-17T14:43:31;93575.44;;;10.57;38.54
6198;BME280;3132;42.622;23.328;2023-02-17T14:45:57;93569.63;;;10.45;39.00
6198;BME280;3132;42.622;23.328;2023-02-17T14:48:22;93545.75;;;10.22;39.37
6198;BME280;3132;42.622;23.328;2023-02-17T14:50:50;93567.47;;;10.32;39.27
6198;BME280;3132;42.622;23.328;2023-02-17T14:53:33;93567.84;;;10.09;39.84
6198;BME280;3132;42.622;23.328;2023-02-17T14:58:50;93561.66;;;9.84;41.50
6198;BME280;3132;42.622;23.328;2023-02-17T15:01:18;93557.63;;;9.66;41.81
6198;BME280;3132;42.622;23.328;2023-02-17T15:03:44;93559.19;;;9.67;41.46
6198;BME280;3132;42.622;23.328;2023-02-17T15:08:41;93542.03;;;9.39;42.59
6198;BME280;3132;42.622;23.328;2023-02-17T15:11:14;93541.16;;;9.29;42.87
6198;BME280;3132;42.622;23.328;2023-02-17T15:13:41;93541.00;;;9.14;43.57
6198;BME280;3132;42.622;23.328;2023-02-17T15:16:07;93555.19;;;9.23;43.66
6198;BME280;3132;42.622;23.328;2023-02-17T15:18:32;93550.09;;;9.11;44.32
6198;BME280;3132;42.622;23.328;2023-02-17T15:20:58;93548.25;;;9.07;44.79